Time;durP1;ratioP1;P1;durP2;ratioP2;P2;SDS_P1;SDS_P2;PMS_P1;PMS_P2;Temp;Humidity;BMP_temperature;BMP_pressure;BME280_temperature;BME280_humidity;BME280_pressure;Samples;Min_cycle;Max_cycle;Signal;HPM_P1;HPM_P2
2023/06/10 00:00:06;;;;;;;12.15;8.05;;;;;;;15.70;100.00;98078.53;2608497;28;20661;-87
2023/06/10 00:01:23;;;;;;;12.32;7.57;;;;;;;15.65;100.00;98076.16;2609246;28;20084;-87
2023/06/10 00:02:39;;;;;;;14.07;7.53;;;;;;;15.58;100.00;98071.31;2608318;28;20420;-87
2023/06/10 00:03:54;;;;;;;10.55;7.72;;;;;;;15.48;100.00;98070.94;2609474;28;20081;-87
2023/06/10 00:05:10;;;;;;;10.15;6.82;;;;;;;15.62;100.00;98073.66;2609130;28;20137;-87
2023/06/10 00:06:26;;;;;;;11.32;7.30;;;;;;;15.29;100.00;98074.56;2609256;28;20558;-86
2023/06/10 00:07:42;;;;;;;10.27;8.20;;;;;;;15.34;100.00;98067.25;2608879;28;20048;-86
2023/06/10 00:08:57;;;;;;;10.82;7.72;;;;;;;15.11;100.00;98071.97;2609275;28;20065;-86
2023/06/10 00:10:13;;;;;;;13.05;7.90;;;;;;;15.21;100.00;98074.09;2608869;28;20492;-87
2023/06/10 00:11:28;;;;;;;10.55;8.15;;;;;;;15.38;100.00;98071.44;2609295;28;20075;-86
2023/06/10 00:12:44;;;;;;;14.25;8.85;;;;;;;15.14;100.00;98072.75;2608408;28;20166;-86
2023/06/10 00:14:00;;;;;;;12.38;8.50;;;;;;;15.31;100.00;98075.31;2609064;28;20057;-87
2023/06/10 00:15:15;;;;;;;13.50;8.57;;;;;;;15.34;100.00;98072.53;2608797;28;20542;-89
2023/06/10 00:16:31;;;;;;;11.60;8.57;;;;;;;15.49;100.00;98070.00;2609219;28;20049;-86
2023/06/10 00:17:46;;;;;;;11.70;8.25;;;;;;;15.69;100.00;98076.81;2608852;28;20130;-87
2023/06/10 00:19:03;;;;;;;13.52;8.77;;;;;;;15.65;100.00;98070.00;2608745;28;20057;-87
2023/06/10 00:20:23;;;;;;;12.50;9.00;;;;;;;15.53;100.00;98066.28;2608207;28;20056;-87
2023/06/10 00:21:40;;;;;;;10.40;7.68;;;;;;;15.43;100.00;98067.69;2609117;28;20067;-87
2023/06/10 00:22:56;;;;;;;15.52;9.13;;;;;;;15.45;100.00;98068.47;2608700;28;20103;-87
2023/06/10 00:24:12;;;;;;;11.75;8.63;;;;;;;15.47;100.00;98070.09;2609157;28;20067;-87
2023/06/10 00:25:28;;;;;;;11.57;8.32;;;;;;;15.18;100.00;98066.38;2608527;28;20432;-87
2023/06/10 00:26:44;;;;;;;9.77;7.45;;;;;;;15.15;100.00;98066.53;2609221;28;20048;-88
2023/06/10 00:27:59;;;;;;;10.98;7.90;;;;;;;15.23;100.00;98067.81;2608584;28;20048;-87
2023/06/10 00:29:15;;;;;;;12.23;8.43;;;;;;;15.47;100.00;98067.44;2608751;28;20060;-90
2023/06/10 00:30:31;;;;;;;11.63;7.60;;;;;;;15.54;100.00;98073.25;2609087;28;20412;-88
2023/06/10 00:31:46;;;;;;;11.68;7.97;;;;;;;15.42;100.00;98073.91;2608412;28;20212;-87
2023/06/10 00:33:02;;;;;;;11.77;8.20;;;;;;;15.39;100.00;98067.00;2609463;28;20052;-87
2023/06/10 00:34:17;;;;;;;10.75;7.80;;;;;;;15.36;100.00;98067.16;2608727;28;20110;-87
2023/06/10 00:35:33;;;;;;;13.38;8.38;;;;;;;15.34;100.00;98069.88;2608691;28;20516;-88
2023/06/10 00:36:49;;;;;;;9.90;7.90;;;;;;;15.25;100.00;98073.03;2608150;28;20053;-87
2023/06/10 00:38:04;;;;;;;10.10;7.88;;;;;;;14.90;100.00;98073.94;2608686;28;20052;-87
2023/06/10 00:39:20;;;;;;;11.07;8.10;;;;;;;14.92;100.00;98077.34;2608614;28;20048;-88
2023/06/10 00:40:41;;;;;;;12.82;8.48;;;;;;;14.88;100.00;98078.44;2608862;28;20057;-88
2023/06/10 00:41:57;;;;;;;11.85;8.00;;;;;;;14.68;100.00;98071.53;2608617;28;20052;-87
2023/06/10 00:43:12;;;;;;;11.45;8.43;;;;;;;14.55;100.00;98084.44;2609353;28;20122;-87
2023/06/10 00:44:28;;;;;;;11.05;8.07;;;;;;;14.79;100.00;98074.47;2607429;28;20064;-87
2023/06/10 00:45:43;;;;;;;12.00;8.13;;;;;;;14.78;100.00;98075.41;2608967;28;20530;-87
2023/06/10 00:46:59;;;;;;;13.00;8.80;;;;;;;15.07;100.00;98080.13;2608369;28;20053;-87
2023/06/10 00:48:15;;;;;;;12.38;8.57;;;;;;;14.99;100.00;98084.94;2608903;28;20372;-87
2023/06/10 00:49:31;;;;;;;13.48;8.70;;;;;;;14.90;100.00;98079.22;2608569;28;20053;-87
2023/06/10 00:50:47;;;;;;;12.52;8.60;;;;;;;14.91;100.00;98077.41;2608550;28;20106;-87
2023/06/10 00:52:04;;;;;;;11.93;8.48;;;;;;;14.81;100.00;98080.56;2608547;28;20084;-86
2023/06/10 00:53:21;;;;;;;13.10;8.20;;;;;;;14.81;100.00;98077.91;2608712;28;20478;-88
2023/06/10 00:54:40;;;;;;;11.98;8.38;;;;;;;14.86;100.00;98080.28;2607679;28;20064;-88
2023/06/10 00:55:56;;;;;;;12.15;8.77;;;;;;;14.98;100.00;98084.09;2608293;28;20052;-88
2023/06/10 00:57:13;;;;;;;12.77;8.38;;;;;;;15.01;100.00;98089.19;2607531;28;20053;-88
2023/06/10 00:58:29;;;;;;;11.98;8.55;;;;;;;15.00;100.00;98084.84;2608706;28;20049;-87
2023/06/10 00:59:48;;;;;;;13.98;9.25;;;;;;;15.09;100.00;98084.38;2608575;28;20053;-87
2023/06/10 01:01:06;;;;;;;13.13;8.40;;;;;;;14.95;100.00;98081.63;2609362;28;20053;-87
2023/06/10 01:02:22;;;;;;;12.15;8.52;;;;;;;15.02;100.00;98085.63;2608322;28;20048;-87
2023/06/10 01:03:39;;;;;;;11.82;8.05;;;;;;;14.96;100.00;98083.31;2608988;28;20408;-87
2023/06/10 01:04:54;;;;;;;12.48;8.00;;;;;;;15.18;100.00;98082.19;2608204;28;20052;-87
2023/06/10 01:06:33;;;;;;;12.95;9.60;;;;;;;15.15;100.00;98077.06;2608608;28;20041;-88
2023/06/10 01:08:04;;;;;;;14.55;8.55;;;;;;;14.93;100.00;98088.72;2607946;28;20065;-87
2023/06/10 01:09:38;;;;;;;11.60;8.48;;;;;;;14.99;100.00;98088.44;2608783;28;20087;-88
2023/06/10 01:10:57;;;;;;;14.20;8.70;;;;;;;14.94;100.00;98090.44;2607851;28;20053;-87
2023/06/10 01:12:23;;;;;;;11.52;8.45;;;;;;;14.92;100.00;98087.03;2609212;28;20076;-87
2023/06/10 01:13:41;;;;;;;11.77;8.50;;;;;;;14.83;100.00;98086.59;2608500;28;21098;-87
2023/06/10 01:14:58;;;;;;;11.57;7.88;;;;;;;15.00;100.00;98092.78;2608865;28;20055;-88
2023/06/10 01:16:14;;;;;;;11.43;8.15;;;;;;;15.15;100.00;98092.91;2608376;28;20048;-87
2023/06/10 01:17:30;;;;;;;12.70;7.90;;;;;;;15.16;100.00;98094.59;2608837;28;20064;-87
2023/06/10 01:18:45;;;;;;;12.02;7.90;;;;;;;15.20;100.00;98096.13;2607899;28;20701;-87
2023/06/10 01:20:03;;;;;;;11.15;7.93;;;;;;;15.08;100.00;98097.63;2608840;28;20045;-87
2023/06/10 01:21:26;;;;;;;11.63;8.13;;;;;;;15.07;100.00;98106.47;2608082;28;20417;-87
2023/06/10 01:22:42;;;;;;;11.50;8.30;;;;;;;15.14;100.00;98099.94;2608858;28;20140;-87
2023/06/10 01:23:58;;;;;;;12.95;8.23;;;;;;;15.15;100.00;98100.81;2608222;28;20900;-87
2023/06/10 01:25:14;;;;;;;13.70;8.20;;;;;;;14.90;100.00;98096.81;2608903;28;20053;-87
2023/06/10 01:26:32;;;;;;;11.88;8.25;;;;;;;14.90;100.00;98107.34;2608321;28;20060;-88
2023/06/10 01:27:50;;;;;;;11.88;8.20;;;;;;;15.05;100.00;98105.72;2608578;28;20147;-87
2023/06/10 01:29:21;;;;;;;11.27;8.15;;;;;;;15.13;100.00;98103.50;2608363;28;20056;-87
2023/06/10 01:30:47;;;;;;;12.05;8.18;;;;;;;15.02;100.00;98105.88;2608881;28;20044;-87
2023/06/10 01:32:14;;;;;;;13.23;8.02;;;;;;;15.13;100.00;98103.50;2608200;28;20049;-88
2023/06/10 01:33:33;;;;;;;10.88;8.13;;;;;;;15.15;100.00;98100.81;2608562;28;20088;-88
2023/06/10 01:34:49;;;;;;;11.85;7.78;;;;;;;15.21;100.00;98105.75;2608529;28;20131;-87
2023/06/10 01:36:06;;;;;;;12.98;8.35;;;;;;;15.13;100.00;98106.16;2608704;28;20128;-87
2023/06/10 01:37:26;;;;;;;13.30;8.70;;;;;;;15.15;100.00;98100.81;2608239;28;20082;-88
2023/06/10 01:38:47;;;;;;;10.25;8.00;;;;;;;15.16;100.00;98111.28;2609093;28;20127;-87
2023/06/10 01:40:05;;;;;;;13.65;8.27;;;;;;;14.95;100.00;98103.53;2608507;28;20599;-87
2023/06/10 01:41:22;;;;;;;10.38;8.02;;;;;;;14.91;100.00;98101.13;2608572;28;20064;-87
2023/06/10 01:42:38;;;;;;;12.95;8.15;;;;;;;14.93;100.00;98104.53;2608057;28;20049;-87
2023/06/10 01:43:54;;;;;;;11.48;8.35;;;;;;;14.83;100.00;98112.94;2608457;28;20041;-87
2023/06/10 01:45:10;;;;;;;10.98;8.15;;;;;;;14.85;100.00;98106.75;2607991;28;20080;-87
2023/06/10 01:46:25;;;;;;;11.60;7.63;;;;;;;14.87;100.00;98110.16;2609073;28;20099;-87
2023/06/10 01:47:41;;;;;;;11.93;8.05;;;;;;;14.95;100.00;98105.34;2608116;28;20045;-87
2023/06/10 01:48:56;;;;;;;11.35;7.47;;;;;;;15.01;100.00;98109.41;2608831;28;20262;-87
2023/06/10 01:50:16;;;;;;;11.75;7.95;;;;;;;14.89;100.00;98116.19;2608517;28;20076;-88
2023/06/10 01:51:35;;;;;;;12.15;7.32;;;;;;;14.46;100.00;98112.09;2607884;28;20048;-88
2023/06/10 01:52:51;;;;;;;13.90;8.65;;;;;;;14.45;100.00;98113.03;2607824;28;20053;-87
2023/06/10 01:54:07;;;;;;;12.85;8.57;;;;;;;14.78;100.00;98112.31;2608686;28;20053;-88
2023/06/10 01:55:22;;;;;;;13.10;8.95;;;;;;;14.90;100.00;98110.84;2608165;28;20502;-88
2023/06/10 01:56:38;;;;;;;12.75;8.90;;;;;;;15.04;100.00;98111.94;2609317;28;20527;-88
2023/06/10 01:57:54;;;;;;;14.65;8.40;;;;;;;14.94;100.00;98106.25;2610005;28;20099;-88
2023/06/10 01:59:09;;;;;;;13.30;9.45;;;;;;;15.04;100.00;98110.13;2610647;28;20393;-88
2023/06/10 02:00:25;;;;;;;21.75;9.57;;;;;;;14.99;100.00;98111.28;2610008;28;20967;-88
2023/06/10 02:01:40;;;;;;;17.63;8.88;;;;;;;14.90;100.00;98121.38;2610583;28;20056;-88
2023/06/10 02:02:56;;;;;;;17.50;9.90;;;;;;;14.82;100.00;98111.25;2610176;28;20080;-88
2023/06/10 02:04:11;;;;;;;15.13;9.15;;;;;;;14.77;100.00;98115.88;2610821;28;20053;-88
2023/06/10 02:05:27;;;;;;;13.68;8.43;;;;;;;14.79;100.00;98114.00;2610392;28;20076;-88
2023/06/10 02:06:42;;;;;;;14.30;9.02;;;;;;;14.85;100.00;98115.47;2610567;28;20040;-89
2023/06/10 02:07:58;;;;;;;42.80;10.45;;;;;;;14.87;100.00;98125.97;2610243;28;20060;-88
2023/06/10 02:09:14;;;;;;;19.80;10.18;;;;;;;14.77;100.00;98125.56;2610105;28;20075;-88
2023/06/10 02:10:29;;;;;;;16.95;9.80;;;;;;;14.68;100.00;98118.97;2610208;28;20171;-88
2023/06/10 02:11:45;;;;;;;32.00;10.82;;;;;;;14.72;100.00;98117.91;2610055;28;20060;-88
2023/06/10 02:13:00;;;;;;;23.00;9.98;;;;;;;14.76;100.00;98119.44;2610702;28;20102;-86
2023/06/10 02:14:16;;;;;;;17.17;9.95;;;;;;;14.86;100.00;98118.97;2610006;28;20053;-88
2023/06/10 02:15:31;;;;;;;16.27;10.77;;;;;;;15.03;100.00;98111.06;2610642;28;20049;-89
2023/06/10 02:16:47;;;;;;;21.35;10.07;;;;;;;15.07;100.00;98109.97;2609783;28;20059;-88
2023/06/10 02:18:03;;;;;;;16.48;9.57;;;;;;;14.89;100.00;98118.81;2610855;28;20052;-88
2023/06/10 02:19:21;;;;;;;23.73;9.95;;;;;;;15.08;100.00;98116.94;2610356;28;20052;-88
2023/06/10 02:20:40;;;;;;;13.73;9.30;;;;;;;15.10;100.00;98115.09;2610533;28;20515;-88
2023/06/10 02:21:55;;;;;;;21.75;9.27;;;;;;;15.10;100.00;98112.47;2609985;28;20049;-88
2023/06/10 02:23:11;;;;;;;22.88;9.70;;;;;;;15.13;100.00;98111.44;2610183;28;20044;-88
2023/06/10 02:24:26;;;;;;;13.60;9.50;;;;;;;15.24;100.00;98113.53;2609866;28;20045;-87
2023/06/10 02:25:42;;;;;;;13.88;9.52;;;;;;;15.25;100.00;98110.78;2610239;28;20076;-88
2023/06/10 02:27:00;;;;;;;15.07;9.57;;;;;;;15.37;100.00;98117.22;2610051;28;20049;-88
2023/06/10 02:28:16;;;;;;;16.55;8.73;;;;;;;15.42;100.00;98116.94;2610239;28;20059;-87
2023/06/10 02:29:31;;;;;;;19.98;9.77;;;;;;;15.39;100.00;98117.13;2609951;28;20412;-88
2023/06/10 02:30:47;;;;;;;18.23;10.25;;;;;;;15.28;100.00;98114.19;2609816;28;20052;-88
2023/06/10 02:32:03;;;;;;;16.58;9.32;;;;;;;15.08;100.00;98108.19;2609258;28;20459;-87
2023/06/10 02:33:19;;;;;;;14.80;9.20;;;;;;;15.06;100.00;98118.81;2610513;28;20088;-88
2023/06/10 02:34:36;;;;;;;23.45;10.38;;;;;;;15.18;100.00;98112.06;2609744;28;20051;-88
2023/06/10 02:35:52;;;;;;;25.10;10.02;;;;;;;15.28;100.00;98119.47;2610062;28;20073;-88
2023/06/10 02:37:07;;;;;;;24.02;11.07;;;;;;;15.29;100.00;98110.63;2609637;28;20087;-88
2023/06/10 02:38:23;;;;;;;32.75;10.85;;;;;;;15.34;100.00;98114.72;2610265;28;20067;-88
2023/06/10 02:39:38;;;;;;;29.50;11.68;;;;;;;15.36;100.00;98112.84;2609574;28;20136;-88
2023/06/10 02:40:54;;;;;;;31.10;10.93;;;;;;;15.40;100.00;98110.91;2610064;28;20056;-88
2023/06/10 02:42:10;;;;;;;32.83;10.35;;;;;;;15.35;100.00;98118.22;2610097;28;20052;-88
2023/06/10 02:43:26;;;;;;;22.48;10.77;;;;;;;15.08;100.00;98116.09;2609961;28;20644;-88
2023/06/10 02:44:41;;;;;;;41.13;11.45;;;;;;;15.18;100.00;98112.06;2610234;28;20045;-89
2023/06/10 02:45:57;;;;;;;34.20;10.57;;;;;;;15.07;100.00;98117.88;2609583;28;21011;-89
2023/06/10 02:47:12;;;;;;;32.45;10.57;;;;;;;15.07;100.00;98117.03;2610127;28;20505;-90
2023/06/10 02:48:28;;;;;;;62.40;12.00;;;;;;;15.07;100.00;98120.50;2609427;28;20052;-88
2023/06/10 02:49:43;;;;;;;71.28;11.85;;;;;;;15.14;100.00;98115.75;2610135;28;20060;-89
2023/06/10 02:51:00;;;;;;;41.97;11.00;;;;;;;15.11;100.00;98119.44;2609493;28;20049;-88
2023/06/10 02:52:15;;;;;;;46.30;10.75;;;;;;;15.08;100.00;98119.56;2610087;28;20056;-89
2023/06/10 02:53:31;;;;;;;70.53;12.70;;;;;;;15.04;100.00;98120.66;2609786;28;20095;-88
2023/06/10 02:54:46;;;;;;;85.00;12.07;;;;;;;15.14;100.00;98122.84;2610195;28;20049;-88
2023/06/10 02:56:02;;;;;;;37.85;9.88;;;;;;;15.10;100.00;98120.38;2609910;28;20485;-90
2023/06/10 02:57:18;;;;;;;36.20;8.45;;;;;;;14.89;100.00;98126.72;2610406;28;20403;-89
2023/06/10 02:58:33;;;;;;;57.25;8.93;;;;;;;14.96;100.00;98130.78;2609404;28;20049;-91
2023/06/10 02:59:49;;;;;;;42.10;8.43;;;;;;;14.92;100.00;98129.19;2610055;28;20084;-89
2023/06/10 03:01:04;;;;;;;72.80;9.77;;;;;;;15.01;100.00;98130.50;2604434;28;20497;-88
2023/06/10 03:02:20;;;;;;;27.67;7.57;;;;;;;14.81;100.00;98132.38;2606311;28;20057;-89
2023/06/10 03:03:40;;;;;;;39.47;6.82;;;;;;;14.73;100.00;98130.16;2609187;28;20114;-89
2023/06/10 03:04:56;;;;;;;73.30;9.68;;;;;;;14.74;100.00;98131.84;2609781;28;20049;-89
2023/06/10 03:06:12;;;;;;;73.75;9.20;;;;;;;15.03;100.00;98136.59;2609505;28;20109;-88
2023/06/10 03:07:27;;;;;;;60.42;9.10;;;;;;;14.98;100.00;98136.81;2609827;28;20083;-88
2023/06/10 03:08:43;;;;;;;69.03;9.13;;;;;;;14.97;100.00;98135.94;2609353;28;20592;-89
2023/06/10 03:09:59;;;;;;;33.10;8.13;;;;;;;15.17;100.00;98136.72;2610190;28;20095;-88
2023/06/10 03:11:15;;;;;;;76.82;9.68;;;;;;;14.94;100.00;98135.25;2609525;28;20056;-88
2023/06/10 03:12:30;;;;;;;28.42;7.63;;;;;;;14.83;100.00;98128.75;2609923;28;20048;-89
2023/06/10 03:13:46;;;;;;;73.50;9.93;;;;;;;14.90;100.00;98138.97;2609117;28;20049;-88
2023/06/10 03:15:03;;;;;;;61.30;9.50;;;;;;;14.83;100.00;98147.22;2609464;28;20049;-88
2023/06/10 03:16:19;;;;;;;57.50;9.68;;;;;;;14.70;100.00;98151.34;2609805;28;20060;-88
2023/06/10 03:17:35;;;;;;;65.35;10.32;;;;;;;14.73;100.00;98137.19;2608996;28;20052;-87
2023/06/10 03:18:51;;;;;;;88.97;11.60;;;;;;;14.86;100.00;98145.34;2609748;28;20049;-89
2023/06/10 03:20:10;;;;;;;96.85;10.45;;;;;;;14.89;100.00;98145.19;2609544;28;20048;-88
2023/06/10 03:21:26;;;;;;;69.47;7.88;;;;;;;14.64;100.00;98146.38;2610012;28;20049;-90
2023/06/10 03:22:42;;;;;;;116.53;8.52;;;;;;;14.35;100.00;98141.63;2609585;28;20451;-90
2023/06/10 03:23:58;;;;;;;335.98;17.70;;;;;;;14.53;100.00;98154.81;2609732;28;20047;-89
2023/06/10 03:25:13;;;;;;;184.35;11.27;;;;;;;14.36;100.00;98142.44;2608654;28;20223;-90
2023/06/10 03:26:29;;;;;;;252.38;14.82;;;;;;;14.54;100.00;98144.22;2599799;28;20156;-88
2023/06/10 03:27:45;;;;;;;389.58;19.98;;;;;;;14.70;100.00;98151.34;2608660;28;20056;-89
2023/06/10 03:29:00;;;;;;;196.50;10.85;;;;;;;14.53;100.00;98149.53;2609848;28;20110;-89
2023/06/10 03:30:16;;;;;;;129.50;8.35;;;;;;;14.42;100.00;98144.81;2608355;28;20107;-89
2023/06/10 03:31:32;;;;;;;154.45;10.57;;;;;;;14.54;100.00;98149.47;2609447;28;20049;-89
2023/06/10 03:32:49;;;;;;;96.80;10.00;;;;;;;14.65;100.00;98148.06;2609368;28;20044;-89
2023/06/10 03:34:04;;;;;;;146.85;10.00;;;;;;;14.48;100.00;98151.56;2604969;28;20052;-89
2023/06/10 03:35:20;;;;;;;52.38;8.25;;;;;;;14.44;100.00;98149.97;2607634;28;20999;-89
2023/06/10 03:36:37;;;;;;;20.98;7.55;;;;;;;14.49;100.00;98148.81;2609683;28;20064;-89
2023/06/10 03:37:52;;;;;;;13.57;7.72;;;;;;;14.30;100.00;98148.88;2609146;28;20040;-89
2023/06/10 03:39:09;;;;;;;12.80;7.05;;;;;;;14.26;100.00;98147.31;2608803;28;20104;-89
2023/06/10 03:40:24;;;;;;;12.52;6.78;;;;;;;14.23;100.00;98150.94;2608763;28;20057;-89
2023/06/10 03:41:40;;;;;;;28.40;8.10;;;;;;;14.56;100.00;98154.66;2610154;28;20056;-89
2023/06/10 03:42:56;;;;;;;29.05;8.40;;;;;;;14.63;100.00;98152.56;2609190;28;20105;-89
2023/06/10 03:44:11;;;;;;;33.25;9.02;;;;;;;14.75;100.00;98154.63;2610032;28;20540;-88
2023/06/10 03:45:28;;;;;;;68.57;9.70;;;;;;;14.70;100.00;98148.72;2609303;28;20041;-89
2023/06/10 03:46:43;;;;;;;49.08;8.98;;;;;;;14.58;100.00;98149.31;2609771;28;20220;-89
2023/06/10 03:48:00;;;;;;;67.55;9.30;;;;;;;14.74;100.00;98149.44;2609505;28;20060;-88
2023/06/10 03:49:16;;;;;;;79.20;9.70;;;;;;;14.79;100.00;98153.53;2608818;28;20052;-88
2023/06/10 03:50:31;;;;;;;62.00;8.85;;;;;;;14.67;100.00;98154.97;2609805;28;20053;-88
2023/06/10 03:51:47;;;;;;;85.75;10.10;;;;;;;14.72;100.00;98143.38;2608514;28;20045;-89
2023/06/10 03:53:02;;;;;;;167.68;12.88;;;;;;;14.51;100.00;98146.97;2608700;28;20509;-88
2023/06/10 03:54:18;;;;;;;192.63;14.70;;;;;;;14.60;100.00;98150.97;2607782;28;20045;-89
2023/06/10 03:55:33;;;;;;;149.65;11.65;;;;;;;14.74;100.00;98149.44;2609171;28;20493;-89
2023/06/10 03:56:50;;;;;;;140.07;13.30;;;;;;;14.79;100.00;98152.69;2608684;28;20084;-88
2023/06/10 03:58:05;;;;;;;135.32;10.68;;;;;;;14.76;100.00;98158.97;2609142;28;20045;-89
2023/06/10 03:59:21;;;;;;;95.32;10.57;;;;;;;14.73;100.00;98150.34;2607600;28;20041;-88
2023/06/10 04:00:41;;;;;;;121.18;11.02;;;;;;;14.80;100.00;98152.59;2608495;28;20128;-88
2023/06/10 04:01:56;;;;;;;110.55;10.73;;;;;;;14.75;100.00;98148.53;2608695;28;20480;-90
2023/06/10 04:03:15;;;;;;;101.18;10.63;;;;;;;14.78;100.00;98153.63;2609496;28;20041;-89
2023/06/10 04:04:31;;;;;;;257.13;17.05;;;;;;;14.66;100.00;98155.91;2607471;28;20056;-88
2023/06/10 04:05:46;;;;;;;160.88;11.82;;;;;;;14.67;100.00;98157.63;2608819;28;20056;-89
2023/06/10 04:07:02;;;;;;;124.75;11.63;;;;;;;14.73;100.00;98153.84;2607700;28;20144;-90
2023/06/10 04:08:18;;;;;;;210.75;16.60;;;;;;;14.88;100.00;98159.28;2607725;28;20111;-89
2023/06/10 04:09:35;;;;;;;184.90;12.70;;;;;;;14.63;100.00;98168.38;2608301;28;20488;-89
2023/06/10 04:10:51;;;;;;;162.85;12.18;;;;;;;14.56;100.00;98167.81;2608043;28;20988;-91
2023/06/10 04:12:08;;;;;;;149.00;13.48;;;;;;;14.62;100.00;98169.31;2608033;28;20060;-89
2023/06/10 04:13:24;;;;;;;99.85;9.60;;;;;;;14.72;100.00;98170.59;2607877;28;20041;-88
2023/06/10 04:14:40;;;;;;;180.13;14.10;;;;;;;14.81;100.00;98164.00;2607756;28;20059;-89
2023/06/10 04:15:55;;;;;;;185.93;13.85;;;;;;;14.69;100.00;98168.09;2608530;28;20053;-89
2023/06/10 04:17:11;;;;;;;300.05;20.33;;;;;;;14.76;100.00;98166.88;2607321;28;20093;-89
2023/06/10 04:18:27;;;;;;;252.27;20.42;;;;;;;14.83;100.00;98165.66;2608754;28;20045;-89
2023/06/10 04:19:42;;;;;;;194.45;15.63;;;;;;;14.81;100.00;98166.66;2607208;28;20045;-89
2023/06/10 04:20:57;;;;;;;232.90;14.90;;;;;;;14.86;100.00;98167.25;2607791;28;20424;-88
2023/06/10 04:22:13;;;;;;;269.48;17.83;;;;;;;14.61;100.00;98173.75;2608096;28;20117;-89
2023/06/10 04:23:29;;;;;;;218.35;14.68;;;;;;;14.65;100.00;98174.41;2607906;28;20140;-89
2023/06/10 04:24:45;;;;;;;173.20;12.57;;;;;;;14.69;100.00;98176.00;2608670;28;20524;-89
2023/06/10 04:26:00;;;;;;;132.25;11.20;;;;;;;14.83;100.00;98172.69;2607416;28;20053;-89
2023/06/10 04:27:16;;;;;;;78.15;9.15;;;;;;;14.90;100.00;98173.25;2608724;28;20052;-88
2023/06/10 04:28:31;;;;;;;119.70;11.57;;;;;;;14.92;100.00;98172.25;2607468;28;20609;-89
2023/06/10 04:29:47;;;;;;;77.90;10.05;;;;;;;14.87;100.00;98176.03;2608573;28;20191;-88
2023/06/10 04:31:04;;;;;;;53.75;9.50;;;;;;;14.96;100.00;98175.59;2607200;28;20045;-88
2023/06/10 04:32:19;;;;;;;78.97;9.13;;;;;;;14.80;100.00;98175.50;2602331;28;20052;-88
2023/06/10 04:33:35;;;;;;;75.35;9.15;;;;;;;14.67;100.00;98176.06;2606228;28;20049;-88
2023/06/10 04:34:51;;;;;;;57.08;9.60;;;;;;;14.77;100.00;98179.13;2605185;28;20045;-90
2023/06/10 04:36:06;;;;;;;23.42;8.23;;;;;;;14.95;100.00;98180.00;2604558;28;20064;-90
2023/06/10 04:37:22;;;;;;;35.03;8.23;;;;;;;14.98;100.00;98173.72;2606535;28;20044;-90
2023/06/10 04:38:38;;;;;;;30.08;8.23;;;;;;;15.08;100.00;98177.56;2603384;28;20049;-88
2023/06/10 04:39:53;;;;;;;28.02;8.43;;;;;;;14.96;100.00;98173.78;2606415;28;20049;-89
2023/06/10 04:41:09;;;;;;;49.58;9.85;;;;;;;15.11;100.00;98169.53;2608851;28;20041;-87
2023/06/10 04:42:24;;;;;;;39.83;9.95;;;;;;;15.09;100.00;98171.41;2610171;28;20052;-88
2023/06/10 04:43:40;;;;;;;84.22;10.27;;;;;;;15.17;100.00;98173.66;2607827;28;20112;-87
2023/06/10 04:44:56;;;;;;;30.13;8.38;;;;;;;15.06;100.00;98182.06;2609038;28;20422;-88
2023/06/10 04:46:13;;;;;;;20.30;8.68;;;;;;;15.09;100.00;98171.41;2608977;28;20045;-89
2023/06/10 04:47:29;;;;;;;13.20;8.07;;;;;;;14.94;100.00;98172.16;2609659;28;20053;-88
2023/06/10 04:48:46;;;;;;;45.45;9.05;;;;;;;15.24;100.00;98174.19;2609055;28;20106;-88
2023/06/10 04:50:03;;;;;;;118.13;12.02;;;;;;;15.11;100.00;98172.16;2608380;28;20496;-89
2023/06/10 04:51:19;;;;;;;59.65;9.05;;;;;;;15.22;100.00;98171.63;2608368;28;20045;-89
2023/06/10 04:52:35;;;;;;;29.90;9.15;;;;;;;15.24;100.00;98172.38;2608422;28;20052;-89
2023/06/10 04:53:50;;;;;;;30.15;9.30;;;;;;;15.36;100.00;98170.88;2607937;28;20053;-90
2023/06/10 04:55:06;;;;;;;28.00;9.40;;;;;;;15.51;100.00;98182.44;2608483;28;20408;-90
2023/06/10 04:56:22;;;;;;;17.30;8.52;;;;;;;15.17;100.00;98181.56;2607507;28;20048;-89
2023/06/10 04:57:41;;;;;;;39.28;8.73;;;;;;;15.04;100.00;98183.94;2608165;28;20140;-89
2023/06/10 04:58:57;;;;;;;13.60;6.97;;;;;;;14.79;100.00;98182.53;2603628;28;20048;-88
2023/06/10 05:00:14;;;;;;;38.83;7.30;;;;;;;14.99;100.00;98180.69;2604559;28;20037;-87
2023/06/10 05:01:29;;;;;;;44.25;9.35;;;;;;;15.39;100.00;98189.22;2607548;28;20066;-87
2023/06/10 05:02:49;;;;;;;30.63;9.32;;;;;;;15.48;100.00;98185.25;2607060;28;20045;-88
2023/06/10 05:04:04;;;;;;;51.45;9.50;;;;;;;15.39;100.00;98180.44;2607397;28;20049;-88
2023/06/10 05:05:20;;;;;;;68.57;10.18;;;;;;;15.57;100.00;98189.19;2607801;28;20048;-90
2023/06/10 05:06:36;;;;;;;66.75;9.77;;;;;;;15.59;100.00;98189.94;2607752;28;20124;-89
2023/06/10 05:07:52;;;;;;;49.53;8.13;;;;;;;15.42;100.00;98190.81;2607511;28;20178;-89
2023/06/10 05:09:07;;;;;;;15.32;7.93;;;;;;;15.17;100.00;98184.19;2608984;28;20036;-88
2023/06/10 05:10:23;;;;;;;31.13;8.05;;;;;;;15.13;100.00;98189.69;2607825;28;20072;-89
2023/06/10 05:11:38;;;;;;;29.25;8.20;;;;;;;15.24;100.00;98193.47;2606567;28;20099;-88
2023/06/10 05:12:54;;;;;;;48.63;9.23;;;;;;;15.30;100.00;98192.31;2607583;28;20708;-88
2023/06/10 05:14:10;;;;;;;39.95;9.25;;;;;;;15.45;100.00;98197.72;2608108;28;20563;-89
2023/06/10 05:15:25;;;;;;;38.28;7.85;;;;;;;15.36;100.00;98194.63;2607677;28;20044;-88
2023/06/10 05:16:43;;;;;;;43.08;10.00;;;;;;;15.44;100.00;98201.31;2608720;28;20570;-89
2023/06/10 05:17:58;;;;;;;37.80;8.10;;;;;;;15.10;100.00;98198.59;2604116;28;20638;-90
2023/06/10 05:19:16;;;;;;;26.45;7.32;;;;;;;14.95;100.00;98206.34;2606186;28;20033;-89
2023/06/10 05:20:31;;;;;;;48.60;8.88;;;;;;;15.20;100.00;98201.63;2606805;28;20472;-88
2023/06/10 05:21:47;;;;;;;52.90;9.52;;;;;;;15.33;100.00;98199.22;2608042;28;20057;-88
2023/06/10 05:23:03;;;;;;;57.10;8.93;;;;;;;15.37;100.00;98196.34;2608207;28;20041;-88
2023/06/10 05:24:19;;;;;;;62.90;9.50;;;;;;;15.40;100.00;98197.97;2608085;28;20087;-88
2023/06/10 05:25:35;;;;;;;17.15;9.05;;;;;;;15.64;100.00;98198.47;2607564;28;20064;-89
2023/06/10 05:26:50;;;;;;;21.42;9.13;;;;;;;15.54;100.00;98200.72;2607972;28;20040;-89
2023/06/10 05:28:09;;;;;;;12.80;8.95;;;;;;;15.24;100.00;98197.91;2607626;28;20135;-89
2023/06/10 05:29:25;;;;;;;11.80;8.07;;;;;;;15.15;100.00;98195.75;2608117;28;20052;-88
2023/06/10 05:30:41;;;;;;;17.08;8.73;;;;;;;15.11;100.00;98202.94;2607337;28;20052;-89
2023/06/10 05:31:57;;;;;;;22.13;9.73;;;;;;;15.24;100.00;98201.38;2607261;28;20492;-88
2023/06/10 05:33:13;;;;;;;16.10;9.32;;;;;;;15.59;100.00;98197.03;2609207;28;20128;-90
2023/06/10 05:34:29;;;;;;;12.20;8.70;;;;;;;15.58;100.00;98203.25;2609494;28;20060;-88
2023/06/10 05:35:45;;;;;;;11.38;8.93;;;;;;;15.44;100.00;98201.31;2610045;28;20045;-86
2023/06/10 05:37:01;;;;;;;13.38;9.50;;;;;;;15.34;100.00;98200.94;2609533;28;20052;-88
2023/06/10 05:38:16;;;;;;;12.77;9.40;;;;;;;15.54;100.00;98198.09;2611215;28;20056;-88
2023/06/10 05:39:32;;;;;;;12.45;8.70;;;;;;;15.52;100.00;98196.50;2608456;28;20120;-87
2023/06/10 05:40:47;;;;;;;11.52;8.65;;;;;;;15.59;100.00;98195.22;2609142;28;20044;-90
2023/06/10 05:42:06;;;;;;;13.00;9.10;;;;;;;15.82;100.00;98198.44;2608555;28;20480;-88
2023/06/10 05:43:22;;;;;;;11.80;8.85;;;;;;;15.81;100.00;98202.00;2606312;28;20049;-89
2023/06/10 05:44:37;;;;;;;18.77;9.60;;;;;;;15.95;100.00;98202.16;2609337;28;20558;-90
2023/06/10 05:45:53;;;;;;;16.60;9.82;;;;;;;16.13;100.00;98204.72;2610991;28;20057;-89
2023/06/10 05:47:09;;;;;;;33.75;10.80;;;;;;;16.26;100.00;98210.16;2609224;28;20057;-90
2023/06/10 05:48:24;;;;;;;17.63;9.77;;;;;;;16.16;100.00;98206.34;2609705;28;20041;-89
2023/06/10 05:49:40;;;;;;;14.55;9.68;;;;;;;16.02;100.00;98207.09;2609588;28;20045;-90